Time;durP1;ratioP1;P1;durP2;ratioP2;P2;SDS_P1;SDS_P2;PMS_P1;PMS_P2;Temp;Humidity;BMP_temperature;BMP_pressure;BME280_temperature;BME280_humidity;BME280_pressure;Samples;Min_cycle;Max_cycle;Signal;HPM_P1;HPM_P2
2021/08/21 00:00:06;;;;;;;45.65;26.42;;;15.90;99.90;;;;;;6201239;22;20440;-88
2021/08/21 00:02:33;;;;;;;39.72;28.02;;;15.80;99.90;;;;;;6225933;22;20487;-87
2021/08/21 00:04:59;;;;;;;38.20;27.40;;;15.80;99.90;;;;;;6228964;22;20012;-87
2021/08/21 00:07:26;;;;;;;47.05;27.52;;;15.80;99.90;;;;;;6202841;22;20016;-88
2021/08/21 00:09:52;;;;;;;46.65;29.08;;;15.80;99.90;;;;;;6253497;22;20083;-88
2021/08/21 00:12:20;;;;;;;37.85;27.88;;;15.80;99.90;;;;;;6198644;22;20012;-87
2021/08/21 00:14:46;;;;;;;47.80;28.33;;;15.80;99.90;;;;;;6225386;22;20043;-87
2021/08/21 00:17:12;;;;;;;40.40;26.30;;;15.80;99.90;;;;;;6234374;22;20020;-88
2021/08/21 00:19:38;;;;;;;41.13;28.33;;;15.80;99.90;;;;;;6212228;22;20478;-88
2021/08/21 00:22:06;;;;;;;41.97;28.52;;;15.80;99.90;;;;;;6209399;22;20020;-87
2021/08/21 00:24:32;;;;;;;39.38;27.00;;;15.80;99.90;;;;;;6208686;22;20015;-86
2021/08/21 00:27:01;;;;;;;48.90;28.13;;;15.70;99.90;;;;;;6203703;22;20471;-87
2021/08/21 00:29:27;;;;;;;46.20;28.70;;;15.80;99.90;;;;;;6178628;22;20026;-88
2021/08/21 00:31:53;;;;;;;44.80;28.02;;;15.80;99.90;;;;;;6227957;22;20020;-86
2021/08/21 00:34:19;;;;;;;43.00;28.52;;;15.70;99.90;;;;;;6205545;22;20062;-87
2021/08/21 00:36:45;;;;;;;43.05;27.25;;;15.80;99.90;;;;;;6173017;22;20020;-88
2021/08/21 00:39:11;;;;;;;50.65;31.23;;;15.80;99.90;;;;;;6174688;22;20113;-88
2021/08/21 00:41:37;;;;;;;45.35;28.70;;;15.70;99.90;;;;;;6172164;22;20102;-86
2021/08/21 00:44:06;;;;;;;49.65;29.95;;;15.70;99.90;;;;;;6200379;22;20845;-89
2021/08/21 00:46:34;;;;;;;45.78;29.75;;;15.80;99.90;;;;;;6178689;22;20062;-87
2021/08/21 00:49:00;;;;;;;46.60;29.30;;;15.70;99.90;;;;;;6232359;22;20406;-88
2021/08/21 00:51:26;;;;;;;44.38;28.63;;;15.70;99.90;;;;;;6231560;22;20389;-88
2021/08/21 00:53:52;;;;;;;42.30;28.85;;;15.70;99.90;;;;;;6234201;22;20008;-89
2021/08/21 00:56:18;;;;;;;42.40;27.88;;;15.70;99.90;;;;;;6206474;22;20081;-89
2021/08/21 00:58:47;;;;;;;42.63;28.65;;;15.70;99.90;;;;;;6207222;22;20016;-88
2021/08/21 01:01:13;;;;;;;39.00;24.52;;;15.70;99.90;;;;;;6208289;22;20059;-87
2021/08/21 01:03:39;;;;;;;43.60;26.88;;;15.70;99.90;;;;;;6229627;22;20016;-88
2021/08/21 01:06:07;;;;;;;41.10;25.33;;;15.70;99.90;;;;;;6233958;22;20012;-88
2021/08/21 01:08:39;;;;;;;35.00;25.30;;;15.70;99.90;;;;;;6212594;22;20074;-88
2021/08/21 01:11:05;;;;;;;38.70;24.92;;;15.70;99.90;;;;;;6204055;22;20035;-88
2021/08/21 01:13:33;;;;;;;43.47;25.55;;;15.70;99.90;;;;;;6181066;22;20050;-88
2021/08/21 01:16:01;;;;;;;37.75;25.33;;;15.60;99.90;;;;;;6208468;22;20016;-88
2021/08/21 01:18:30;;;;;;;38.70;24.65;;;15.60;99.90;;;;;;6229867;22;20019;-87
2021/08/21 01:20:57;;;;;;;37.10;24.45;;;15.60;99.90;;;;;;6208554;22;20046;-87
2021/08/21 01:23:23;;;;;;;46.63;25.70;;;15.60;99.90;;;;;;6205994;22;20022;-86
2021/08/21 01:25:55;;;;;;;37.17;24.88;;;15.60;99.90;;;;;;6206554;22;20047;-88
2021/08/21 01:28:24;;;;;;;42.92;25.05;;;15.60;99.90;;;;;;6182322;22;20483;-87
2021/08/21 01:30:50;;;;;;;39.22;23.45;;;15.60;99.90;;;;;;6175464;22;20011;-87
2021/08/21 01:33:20;;;;;;;32.35;20.63;;;15.60;99.90;;;;;;6207457;22;20539;-88
2021/08/21 01:35:51;;;;;;;40.13;24.73;;;15.50;99.90;;;;;;6178599;22;20779;-87
2021/08/21 01:38:26;;;;;;;31.55;20.77;;;15.50;99.90;;;;;;6235449;22;20261;-87
2021/08/21 01:40:56;;;;;;;40.03;23.05;;;15.50;99.90;;;;;;6205826;22;20080;-88
2021/08/21 01:43:22;;;;;;;47.08;24.65;;;15.50;99.90;;;;;;6232664;22;20086;-86
2021/08/21 01:45:49;;;;;;;42.38;23.30;;;15.50;99.90;;;;;;6232606;22;20027;-87
2021/08/21 01:48:18;;;;;;;32.90;21.55;;;15.50;99.90;;;;;;6232136;22;20039;-86
2021/08/21 01:50:47;;;;;;;34.08;21.67;;;15.50;99.90;;;;;;6208620;22;20015;-85
2021/08/21 01:53:17;;;;;;;39.58;22.38;;;15.50;99.90;;;;;;6209319;22;20447;-87
2021/08/21 01:55:44;;;;;;;39.42;24.85;;;15.50;99.90;;;;;;6205632;22;20329;-86
2021/08/21 01:58:20;;;;;;;41.33;24.67;;;15.50;99.90;;;;;;6235084;22;20012;-87
2021/08/21 02:00:47;;;;;;;34.72;23.55;;;15.50;99.90;;;;;;6205471;22;20058;-87
2021/08/21 02:03:13;;;;;;;36.33;23.20;;;15.50;99.90;;;;;;6206161;22;20011;-87
2021/08/21 02:05:40;;;;;;;40.58;23.92;;;15.50;99.90;;;;;;6240144;22;20004;-87
2021/08/21 02:08:06;;;;;;;37.60;21.65;;;15.50;99.90;;;;;;6289539;22;20111;-88
2021/08/21 02:10:32;;;;;;;39.20;25.33;;;15.50;99.90;;;;;;6190164;22;20074;-87
2021/08/21 02:12:58;;;;;;;36.67;22.73;;;15.50;99.90;;;;;;6182843;22;20035;-88
2021/08/21 02:15:26;;;;;;;39.40;23.88;;;15.50;99.90;;;;;;6205174;22;20099;-87
2021/08/21 02:17:52;;;;;;;34.80;24.63;;;15.50;99.90;;;;;;6234163;22;20027;-88
2021/08/21 02:20:20;;;;;;;34.63;24.48;;;15.60;99.90;;;;;;6206237;22;20016;-87
2021/08/21 02:22:49;;;;;;;41.08;25.02;;;15.60;99.90;;;;;;6233010;22;20011;-87
2021/08/21 02:25:15;;;;;;;39.78;24.42;;;15.60;99.90;;;;;;6181913;22;20073;-88
2021/08/21 02:27:55;;;;;;;39.25;23.30;;;15.50;99.90;;;;;;6231439;22;20403;-88
2021/08/21 02:30:22;;;;;;;41.08;25.35;;;15.50;99.90;;;;;;6205913;22;20015;-87
2021/08/21 02:32:48;;;;;;;36.28;21.52;;;15.50;99.90;;;;;;6262840;22;20084;-88
2021/08/21 02:35:14;;;;;;;37.60;24.00;;;15.50;99.90;;;;;;6203464;22;20102;-88
2021/08/21 02:37:40;;;;;;;36.83;23.60;;;15.50;99.90;;;;;;6182594;22;20058;-89
2021/08/21 02:40:09;;;;;;;41.47;25.30;;;15.40;99.90;;;;;;6208518;22;20015;-87
2021/08/21 02:42:35;;;;;;;44.72;26.48;;;15.40;99.90;;;;;;6181146;22;20066;-87
2021/08/21 02:45:01;;;;;;;37.88;24.80;;;15.40;99.90;;;;;;6182056;22;20016;-88
2021/08/21 02:47:26;;;;;;;43.97;25.38;;;15.40;99.90;;;;;;6230987;22;20101;-87
2021/08/21 02:49:53;;;;;;;53.67;28.30;;;15.40;99.90;;;;;;6230619;22;20274;-87
2021/08/21 02:52:19;;;;;;;47.03;28.02;;;15.30;99.90;;;;;;6207258;22;20447;-87
2021/08/21 02:54:45;;;;;;;44.70;27.65;;;15.30;99.90;;;;;;6207824;22;20011;-88
2021/08/21 02:57:11;;;;;;;38.25;26.17;;;15.30;99.90;;;;;;6229718;22;20019;-87
2021/08/21 02:59:36;;;;;;;52.63;27.98;;;15.30;99.90;;;;;;6203748;22;20443;-87
2021/08/21 03:02:07;;;;;;;46.92;28.48;;;15.30;99.90;;;;;;6207523;22;20008;-87
2021/08/21 03:04:35;;;;;;;43.35;27.05;;;15.20;99.90;;;;;;6206125;22;20011;-87
2021/08/21 03:07:01;;;;;;;49.63;29.58;;;15.20;99.90;;;;;;6204544;22;20038;-87
2021/08/21 03:09:30;;;;;;;40.08;28.30;;;15.10;99.90;;;;;;6234240;22;20015;-87
2021/08/21 03:11:55;;;;;;;42.17;27.77;;;15.10;99.90;;;;;;6207345;22;20442;-87
2021/08/21 03:14:21;;;;;;;46.30;28.35;;;15.10;99.90;;;;;;6207546;22;20341;-87
2021/08/21 03:16:47;;;;;;;51.22;31.40;;;15.10;99.90;;;;;;6206046;22;20020;-87
2021/08/21 03:19:13;;;;;;;50.58;27.92;;;15.10;99.90;;;;;;6205329;22;20026;-87
2021/08/21 03:21:39;;;;;;;55.97;31.10;;;15.00;99.90;;;;;;6178983;22;20012;-87
2021/08/21 03:24:06;;;;;;;52.67;30.17;;;15.00;99.90;;;;;;6208322;22;20040;-87
2021/08/21 03:26:32;;;;;;;53.30;30.92;;;15.00;99.90;;;;;;6227897;22;20518;-87
2021/08/21 03:28:58;;;;;;;46.15;28.48;;;15.00;99.90;;;;;;6229813;22;20016;-87
2021/08/21 03:31:24;;;;;;;42.17;28.40;;;14.90;99.90;;;;;;6202209;22;20016;-87
2021/08/21 03:33:50;;;;;;;54.97;32.28;;;14.90;99.90;;;;;;6262720;22;20436;-88
2021/08/21 03:36:16;;;;;;;56.75;31.55;;;14.90;99.90;;;;;;6201782;22;20024;-88
2021/08/21 03:38:42;;;;;;;41.92;25.58;;;14.90;99.90;;;;;;6208068;22;20004;-88
2021/08/21 03:41:11;;;;;;;42.50;25.55;;;14.90;99.90;;;;;;6207925;22;20027;-87
2021/08/21 03:43:37;;;;;;;40.78;24.55;;;14.80;99.90;;;;;;6204971;22;20107;-87
2021/08/21 03:46:03;;;;;;;44.33;25.42;;;14.80;99.90;;;;;;6179032;22;20171;-88
2021/08/21 03:48:29;;;;;;;47.00;26.58;;;14.80;99.90;;;;;;6206971;22;20464;-88
2021/08/21 03:50:54;;;;;;;42.67;26.60;;;14.80;99.90;;;;;;6205860;22;20012;-87
2021/08/21 03:53:20;;;;;;;42.85;26.60;;;14.80;99.90;;;;;;6209076;22;20449;-88
2021/08/21 03:55:48;;;;;;;41.58;25.35;;;14.80;99.90;;;;;;6232252;22;20016;-87
2021/08/21 03:58:14;;;;;;;44.40;24.20;;;14.70;99.90;;;;;;6182857;22;20435;-86
2021/08/21 04:00:40;;;;;;;36.30;23.25;;;14.70;99.90;;;;;;6230239;22;20018;-87
2021/08/21 04:03:08;;;;;;;32.72;22.48;;;14.70;99.90;;;;;;6213740;22;20019;-88
2021/08/21 04:05:34;;;;;;;32.50;21.38;;;14.70;99.90;;;;;;6207314;22;20022;-88
2021/08/21 04:08:00;;;;;;;39.97;22.05;;;14.70;99.90;;;;;;6207661;22;20239;-89
2021/08/21 04:10:26;;;;;;;35.60;24.23;;;14.70;99.90;;;;;;6210483;22;20460;-88
2021/08/21 04:12:52;;;;;;;40.83;23.73;;;14.70;99.90;;;;;;6208668;22;20012;-88
2021/08/21 04:15:18;;;;;;;40.08;24.67;;;14.70;99.90;;;;;;6183353;22;20023;-87
2021/08/21 04:17:44;;;;;;;30.60;20.60;;;14.60;99.90;;;;;;6233802;22;20019;-88
2021/08/21 04:20:11;;;;;;;36.58;21.65;;;14.60;99.90;;;;;;6230906;22;20371;-88
2021/08/21 04:22:39;;;;;;;28.98;19.65;;;14.60;99.90;;;;;;6207474;22;20421;-88
2021/08/21 04:25:05;;;;;;;42.25;20.52;;;14.60;99.90;;;;;;6233941;22;20023;-89
2021/08/21 04:27:31;;;;;;;24.75;18.25;;;14.60;99.90;;;;;;6256818;22;20067;-87
2021/08/21 04:29:57;;;;;;;32.53;20.38;;;14.60;99.90;;;;;;6208673;22;20027;-88
2021/08/21 04:32:23;;;;;;;31.92;21.05;;;14.60;99.90;;;;;;6209944;22;20064;-88
2021/08/21 04:34:49;;;;;;;40.95;23.73;;;14.60;99.90;;;;;;6229597;22;20217;-88
2021/08/21 04:37:16;;;;;;;32.30;20.80;;;14.60;99.90;;;;;;6233474;22;20034;-88
2021/08/21 04:39:42;;;;;;;32.08;19.73;;;14.60;99.90;;;;;;6207181;22;20007;-88
2021/08/21 04:42:08;;;;;;;35.92;21.52;;;14.60;99.90;;;;;;6211577;22;20020;-88
2021/08/21 04:44:34;;;;;;;43.63;23.58;;;14.50;99.90;;;;;;6231790;22;20401;-89
2021/08/21 04:47:04;;;;;;;39.38;21.25;;;14.60;99.90;;;;;;6207500;22;20014;-89
2021/08/21 04:49:30;;;;;;;36.92;22.30;;;14.50;99.90;;;;;;6180960;22;20478;-88
2021/08/21 04:51:59;;;;;;;30.20;19.98;;;14.50;99.90;;;;;;6204737;22;20103;-88
2021/08/21 04:54:30;;;;;;;38.80;21.60;;;14.50;99.90;;;;;;6210255;22;20465;-88
2021/08/21 04:56:55;;;;;;;33.65;22.17;;;14.50;99.90;;;;;;6183641;22;20319;-89
2021/08/21 04:59:24;;;;;;;36.67;22.55;;;14.50;99.90;;;;;;6207750;22;20007;-88
2021/08/21 05:01:55;;;;;;;36.25;22.92;;;14.50;99.90;;;;;;6215394;22;20323;-88
2021/08/21 05:04:24;;;;;;;45.03;25.27;;;14.50;99.90;;;;;;6241867;22;20012;-88
2021/08/21 05:06:53;;;;;;;36.58;22.67;;;14.60;99.90;;;;;;6228263;22;20039;-87
2021/08/21 05:09:21;;;;;;;35.10;24.27;;;14.60;99.90;;;;;;6228176;22;20031;-87
2021/08/21 05:11:47;;;;;;;38.53;25.00;;;14.60;99.90;;;;;;6227339;22;20011;-87
2021/08/21 05:14:13;;;;;;;40.25;26.42;;;14.60;99.90;;;;;;6227148;22;20035;-87
2021/08/21 05:16:42;;;;;;;44.03;27.27;;;14.60;99.90;;;;;;6251938;22;20012;-87
2021/08/21 05:19:24;;;;;;;42.88;26.83;;;14.50;99.90;;;;;;6226816;22;20016;-87
2021/08/21 05:21:52;;;;;;;39.20;25.30;;;14.60;99.90;;;;;;6231107;22;20449;-87
2021/08/21 05:24:18;;;;;;;53.67;29.15;;;14.50;99.90;;;;;;6227678;22;20069;-87
2021/08/21 05:26:47;;;;;;;50.30;29.17;;;14.60;99.90;;;;;;6227122;22;20008;-88
2021/08/21 05:29:15;;;;;;;47.95;28.48;;;14.60;99.90;;;;;;6251049;22;20044;-88
2021/08/21 05:31:41;;;;;;;41.03;26.55;;;14.60;99.90;;;;;;6247184;22;20173;-87
2021/08/21 05:34:11;;;;;;;52.45;30.90;;;14.60;99.90;;;;;;6213581;22;20099;-87
2021/08/21 05:36:37;;;;;;;75.47;39.65;;;14.60;99.90;;;;;;6213711;22;20505;-87
2021/08/21 05:39:07;;;;;;;71.63;40.00;;;14.60;99.90;;;;;;6269631;22;20021;-87
2021/08/21 05:41:34;;;;;;;89.38;40.67;;;14.70;99.90;;;;;;6239216;22;20061;-88
2021/08/21 05:44:06;;;;;;;112.93;40.40;;;14.70;99.90;;;;;;6241404;22;20015;-87
2021/08/21 05:46:32;;;;;;;119.65;40.95;;;14.70;99.90;;;;;;6188041;22;20085;-88
2021/08/21 05:48:58;;;;;;;151.02;42.10;;;14.70;99.90;;;;;;6191826;22;20518;-88
2021/08/21 05:51:25;;;;;;;166.02;45.05;;;14.70;99.90;;;;;;6190090;22;20038;-87
2021/08/21 05:53:51;;;;;;;157.80;44.92;;;14.70;99.90;;;;;;6213862;22;20376;-87
2021/08/21 05:56:20;;;;;;;186.10;44.72;;;14.70;99.90;;;;;;6184623;22;20113;-87
2021/08/21 05:58:46;;;;;;;204.77;48.90;;;14.70;99.90;;;;;;6210255;22;20026;-86
2021/08/21 06:01:12;;;;;;;236.48;54.22;;;14.70;99.90;;;;;;6209083;22;20011;-86
2021/08/21 06:03:41;;;;;;;262.85;53.65;;;14.70;99.90;;;;;;6209039;22;20516;-86
2021/08/21 06:06:11;;;;;;;196.05;52.13;;;14.70;99.90;;;;;;6233677;22;20062;-87
2021/08/21 06:08:43;;;;;;;271.25;55.33;;;14.70;99.90;;;;;;6238695;22;20495;-86
2021/08/21 06:11:13;;;;;;;242.15;50.55;;;14.70;99.90;;;;;;6211672;22;20365;-87
2021/08/21 06:13:38;;;;;;;275.05;51.17;;;14.80;99.90;;;;;;6238053;22;20012;-86
2021/08/21 06:16:04;;;;;;;227.18;49.35;;;14.80;99.90;;;;;;6239730;22;20020;-87
2021/08/21 06:18:31;;;;;;;273.42;53.33;;;14.70;99.90;;;;;;6214000;22;20007;-86
2021/08/21 06:20:58;;;;;;;175.18;49.50;;;14.80;99.90;;;;;;6266205;22;20091;-87
2021/08/21 06:23:23;;;;;;;206.75;51.83;;;14.80;99.90;;;;;;6216113;22;20015;-86
2021/08/21 06:25:49;;;;;;;132.55;44.80;;;14.80;99.90;;;;;;6190735;22;20019;-87
2021/08/21 06:28:15;;;;;;;188.80;48.70;;;14.90;99.90;;;;;;6241913;22;20091;-87
2021/08/21 06:30:41;;;;;;;193.15;53.88;;;14.90;99.90;;;;;;6241521;22;20331;-87
2021/08/21 06:33:07;;;;;;;105.00;40.88;;;15.00;99.90;;;;;;6242072;22;20012;-87
2021/08/21 06:35:33;;;;;;;167.50;50.05;;;15.00;99.90;;;;;;6242690;22;20137;-87
2021/08/21 06:37:59;;;;;;;96.55;47.42;;;15.10;99.90;;;;;;6191490;22;20016;-86
2021/08/21 06:40:26;;;;;;;144.25;51.72;;;15.10;99.90;;;;;;6241541;22;20023;-87
2021/08/21 06:42:52;;;;;;;99.28;48.08;;;15.20;99.90;;;;;;6242394;22;20008;-86
2021/08/21 06:45:17;;;;;;;75.63;43.25;;;15.30;99.90;;;;;;6189849;22;20022;-86
2021/08/21 06:47:43;;;;;;;71.95;41.60;;;15.30;99.90;;;;;;6241646;22;20090;-87
2021/08/21 06:50:24;;;;;;;104.18;49.13;;;15.30;99.90;;;;;;6216140;22;20031;-87
2021/08/21 06:52:51;;;;;;;116.10;50.05;;;15.40;99.90;;;;;;6225166;22;20582;-86
2021/08/21 06:55:18;;;;;;;133.38;48.97;;;15.50;99.90;;;;;;6240598;22;20018;-87
2021/08/21 06:57:47;;;;;;;67.97;43.92;;;15.60;99.90;;;;;;6217237;22;20039;-87
2021/08/21 07:00:13;;;;;;;124.15;50.15;;;15.60;99.90;;;;;;6239923;22;20016;-87
2021/08/21 07:02:39;;;;;;;79.22;44.35;;;15.60;99.90;;;;;;6165345;22;20094;-87
2021/08/21 07:05:05;;;;;;;77.30;44.13;;;15.70;99.90;;;;;;6214056;22;20291;-86
2021/08/21 07:07:31;;;;;;;83.72;46.05;;;15.80;99.90;;;;;;6216324;22;20468;-87
2021/08/21 07:10:00;;;;;;;80.30;42.08;;;15.80;99.90;;;;;;6240694;22;20019;-87
2021/08/21 07:12:26;;;;;;;69.30;42.33;;;15.90;99.90;;;;;;6162954;22;20074;-87
2021/08/21 07:14:51;;;;;;;70.10;42.00;;;16.00;99.90;;;;;;6214951;22;20418;-87
2021/08/21 07:17:18;;;;;;;74.38;43.60;;;16.00;99.90;;;;;;6217676;22;20090;-87
2021/08/21 07:19:44;;;;;;;68.97;43.13;;;16.10;99.90;;;;;;6217775;22;20019;-87
2021/08/21 07:22:09;;;;;;;67.35;41.45;;;16.10;99.90;;;;;;6243945;22;20008;-86
2021/08/21 07:24:35;;;;;;;67.07;41.95;;;16.20;99.90;;;;;;6217421;22;20019;-87
2021/08/21 07:27:02;;;;;;;73.68;42.28;;;16.30;99.90;;;;;;6219564;22;20063;-87
2021/08/21 07:29:27;;;;;;;69.78;41.05;;;16.30;99.90;;;;;;6245366;22;20021;-87
2021/08/21 07:31:54;;;;;;;63.70;41.40;;;16.30;99.90;;;;;;6197223;22;20031;-87
2021/08/21 07:34:20;;;;;;;67.60;43.25;;;16.40;99.90;;;;;;6241140;22;20003;-86
2021/08/21 07:36:46;;;;;;;69.22;42.85;;;16.50;99.90;;;;;;6255460;22;20019;-86
2021/08/21 07:39:11;;;;;;;63.80;40.60;;;16.50;99.90;;;;;;6217952;22;20094;-87
2021/08/21 07:41:42;;;;;;;54.70;36.85;;;16.60;99.90;;;;;;6171537;22;20015;-87
2021/08/21 07:44:08;;;;;;;59.05;38.20;;;16.60;99.90;;;;;;6244586;22;20094;-87
2021/08/21 07:46:34;;;;;;;60.55;38.28;;;16.80;99.90;;;;;;6216996;22;20019;-86
2021/08/21 07:48:59;;;;;;;69.25;42.95;;;16.80;99.90;;;;;;6242735;22;20015;-87
2021/08/21 07:51:25;;;;;;;72.13;42.47;;;16.90;99.90;;;;;;6211795;22;20669;-87
2021/08/21 07:53:54;;;;;;;67.22;41.58;;;17.00;99.90;;;;;;6217790;22;20012;-86
2021/08/21 07:56:19;;;;;;;64.10;40.20;;;17.10;99.90;;;;;;6219119;22;20030;-87
2021/08/21 07:58:45;;;;;;;60.70;41.35;;;17.10;99.90;;;;;;6215439;22;20016;-87
2021/08/21 08:01:11;;;;;;;71.28;42.17;;;17.30;99.90;;;;;;6218999;22;20008;-87
2021/08/21 08:03:37;;;;;;;68.78;41.78;;;17.30;99.90;;;;;;6198466;22;20045;-86
2021/08/21 08:06:03;;;;;;;63.95;41.45;;;17.50;99.90;;;;;;6243319;22;20011;-86
2021/08/21 08:08:29;;;;;;;60.13;41.35;;;17.50;99.90;;;;;;6238541;22;20019;-87
2021/08/21 08:10:55;;;;;;;58.10;39.63;;;17.50;99.90;;;;;;6218037;22;20238;-86
2021/08/21 08:13:21;;;;;;;59.38;41.38;;;17.60;99.90;;;;;;6213384;22;20213;-86
2021/08/21 08:15:47;;;;;;;57.63;39.83;;;17.70;99.90;;;;;;6188524;22;20022;-86
2021/08/21 08:18:13;;;;;;;60.92;40.80;;;17.80;99.90;;;;;;6243301;22;20015;-87
2021/08/21 08:20:39;;;;;;;56.83;39.60;;;17.90;99.90;;;;;;6223138;22;20031;-86
2021/08/21 08:23:07;;;;;;;57.45;38.22;;;18.00;99.90;;;;;;6253313;22;20110;-86
2021/08/21 08:25:36;;;;;;;57.97;39.75;;;18.10;99.90;;;;;;6262650;22;20075;-86
2021/08/21 08:28:02;;;;;;;56.42;40.00;;;18.20;99.90;;;;;;6218199;22;20057;-86
2021/08/21 08:30:31;;;;;;;58.38;39.67;;;18.30;99.90;;;;;;6233883;22;20008;-87
2021/08/21 08:32:59;;;;;;;58.90;38.20;;;18.40;99.90;;;;;;6253287;22;20067;-87
2021/08/21 08:35:25;;;;;;;57.70;39.60;;;18.40;99.90;;;;;;6230665;22;20012;-86
2021/08/21 08:37:51;;;;;;;52.85;38.38;;;18.50;99.90;;;;;;6258955;22;20011;-87
2021/08/21 08:40:17;;;;;;;55.58;38.95;;;18.50;99.90;;;;;;6285358;22;20483;-86
2021/08/21 08:42:44;;;;;;;50.00;35.95;;;18.60;99.90;;;;;;6230558;22;20023;-86
2021/08/21 08:45:14;;;;;;;45.67;33.15;;;18.70;99.90;;;;;;6254146;22;20018;-84
2021/08/21 08:47:40;;;;;;;49.67;36.40;;;18.70;99.90;;;;;;6225439;22;20014;-85
2021/08/21 08:50:09;;;;;;;53.03;37.50;;;18.80;99.90;;;;;;6276711;22;20034;-84
2021/08/21 08:52:35;;;;;;;46.13;34.13;;;18.80;99.90;;;;;;6248939;22;20440;-84
2021/08/21 08:55:06;;;;;;;48.00;34.95;;;18.90;99.90;;;;;;6276221;22;20015;-84
2021/08/21 08:57:40;;;;;;;49.65;35.10;;;18.80;99.90;;;;;;6222764;22;20073;-84
2021/08/21 09:00:12;;;;;;;45.30;34.55;;;18.90;99.90;;;;;;6247431;22;20012;-84
2021/08/21 09:02:43;;;;;;;49.17;36.50;;;19.00;99.90;;;;;;6219793;22;20321;-85
2021/08/21 09:05:14;;;;;;;50.45;36.88;;;19.00;99.90;;;;;;6249318;22;20042;-85
2021/08/21 09:07:43;;;;;;;53.78;39.38;;;19.00;99.90;;;;;;6221916;22;20536;-84
2021/08/21 09:10:20;;;;;;;51.08;37.42;;;19.00;99.90;;;;;;6221441;22;20019;-85
2021/08/21 09:12:49;;;;;;;51.00;37.03;;;19.00;99.90;;;;;;6256971;22;20015;-85
2021/08/21 09:15:28;;;;;;;47.05;35.05;;;19.00;99.90;;;;;;6247929;22;20460;-84
2021/08/21 09:18:06;;;;;;;54.22;37.75;;;19.00;99.90;;;;;;6249071;22;20076;-84
2021/08/21 09:20:50;;;;;;;48.80;35.92;;;18.90;99.90;;;;;;6261268;22;20019;-86
2021/08/21 09:23:26;;;;;;;48.33;37.55;;;19.00;99.90;;;;;;6251102;22;20019;-84
2021/08/21 09:25:55;;;;;;;50.10;36.85;;;19.00;99.90;;;;;;6255881;22;20012;-86
2021/08/21 09:28:26;;;;;;;49.53;34.78;;;19.00;99.90;;;;;;6253212;22;20015;-84
2021/08/21 09:31:14;;;;;;;43.20;32.10;;;19.00;99.90;;;;;;6250372;22;20012;-85
2021/08/21 09:33:49;;;;;;;38.63;30.33;;;19.00;99.90;;;;;;6251504;22;20015;-85
2021/08/21 09:36:31;;;;;;;43.88;33.28;;;19.10;99.90;;;;;;6289518;22;20030;-84
2021/08/21 09:39:03;;;;;;;44.20;32.53;;;19.10;99.90;;;;;;6223957;22;20483;-85
2021/08/21 09:41:52;;;;;;;36.85;28.77;;;19.10;99.90;;;;;;6227407;22;20012;-85
2021/08/21 09:44:27;;;;;;;40.03;29.40;;;19.20;99.90;;;;;;6225737;22;20095;-85
2021/08/21 09:47:13;;;;;;;40.42;30.65;;;19.20;99.90;;;;;;6279121;22;20016;-85
2021/08/21 09:49:44;;;;;;;41.78;29.40;;;19.20;99.90;;;;;;6253659;22;20079;-85
2021/08/21 09:52:14;;;;;;;40.72;29.45;;;19.20;99.90;;;;;;6261451;22;20099;-84
2021/08/21 09:55:03;;;;;;;40.78;30.70;;;19.30;99.90;;;;;;6248437;22;20075;-85
2021/08/21 09:57:34;;;;;;;39.95;29.25;;;19.30;99.90;;;;;;6252856;22;20050;-84
2021/08/21 10:00:01;;;;;;;38.90;29.25;;;19.40;99.90;;;;;;6253206;22;20456;-85
2021/08/21 10:02:32;;;;;;;43.42;31.90;;;19.40;99.90;;;;;;6225970;22;20065;-84
2021/08/21 10:04:58;;;;;;;41.35;30.58;;;19.50;99.90;;;;;;6252205;22;20081;-83
2021/08/21 10:07:32;;;;;;;46.08;31.55;;;19.50;99.90;;;;;;6227379;22;20022;-86
2021/08/21 10:10:03;;;;;;;44.53;33.25;;;19.60;99.90;;;;;;6226199;22;20023;-86
2021/08/21 10:12:31;;;;;;;41.15;30.45;;;19.60;99.90;;;;;;6263850;22;20007;-85
2021/08/21 10:15:01;;;;;;;37.47;29.67;;;19.70;99.90;;;;;;6253924;22;20479;-84
2021/08/21 10:17:30;;;;;;;41.63;31.42;;;19.70;99.90;;;;;;6253017;22;20015;-85
2021/08/21 10:19:59;;;;;;;39.20;29.50;;;19.70;99.90;;;;;;6264278;22;20016;-85
2021/08/21 10:22:28;;;;;;;43.15;31.30;;;19.70;99.90;;;;;;6254860;22;20095;-85
2021/08/21 10:24:54;;;;;;;39.58;29.80;;;19.80;99.90;;;;;;6228891;22;20011;-85
2021/08/21 10:28:10;;;;;;;37.45;29.30;;;19.70;99.90;;;;;;6254757;22;20060;-85
2021/08/21 10:30:51;;;;;;;39.38;30.02;;;19.80;99.90;;;;;;6132772;23;20079;-88
2021/08/21 10:33:51;;;;;;;35.40;27.30;;;19.90;99.90;;;;;;6245286;22;20102;-85
2021/08/21 10:37:05;;;;;;;36.08;27.73;;;19.90;99.90;;;;;;6228698;23;20067;-85
2021/08/21 10:39:35;;;;;;;36.03;25.95;;;20.00;99.90;;;;;;6226063;23;20084;-84
2021/08/21 10:42:38;;;;;;;32.90;26.60;;;20.00;99.90;;;;;;6217125;23;20397;-85
2021/08/21 10:45:10;;;;;;;33.47;26.33;;;20.10;99.90;;;;;;6213683;23;20091;-85
2021/08/21 10:47:38;;;;;;;35.83;27.75;;;20.10;99.80;;;;;;6160034;23;20401;-85
2021/08/21 10:50:15;;;;;;;34.80;27.13;;;20.20;99.90;;;;;;6185327;23;20016;-85
2021/08/21 10:52:51;;;;;;;36.30;27.17;;;20.20;99.70;;;;;;6235233;23;20020;-86
2021/08/21 10:55:20;;;;;;;38.13;30.20;;;20.30;99.60;;;;;;6207577;23;20074;-86
2021/08/21 10:58:01;;;;;;;35.42;27.92;;;20.30;99.70;;;;;;6190211;23;20016;-85
2021/08/21 11:00:39;;;;;;;35.65;27.48;;;20.40;99.80;;;;;;6213281;23;20051;-86
2021/08/21 11:03:12;;;;;;;32.13;25.92;;;20.50;99.90;;;;;;6236518;22;20016;-86
2021/08/21 11:06:04;;;;;;;29.77;24.58;;;20.60;99.40;;;;;;6219180;23;20079;-85
2021/08/21 11:08:35;;;;;;;29.05;22.98;;;20.60;99.50;;;;;;6212157;23;20008;-86
2021/08/21 11:11:10;;;;;;;25.65;21.83;;;20.70;99.50;;;;;;6234732;23;20016;-85
2021/08/21 11:14:02;;;;;;;23.88;19.83;;;20.70;99.20;;;;;;6209583;23;20012;-85
2021/08/21 11:17:01;;;;;;;24.10;19.27;;;20.80;98.60;;;;;;6233890;23;20027;-85
2021/08/21 11:19:39;;;;;;;20.25;16.17;;;20.80;98.20;;;;;;6210558;23;20030;-88
2021/08/21 11:22:10;;;;;;;22.92;17.83;;;20.80;97.60;;;;;;6244618;23;20016;-85
2021/08/21 11:24:38;;;;;;;20.83;16.33;;;20.70;97.50;;;;;;6233098;22;20012;-86
2021/08/21 11:27:22;;;;;;;26.35;19.17;;;20.70;97.20;;;;;;6179676;23;20599;-86
2021/08/21 11:32:46;;;;;;;21.27;17.15;;;20.80;97.80;;;;;;6206374;23;20016;-87
2021/08/21 11:35:25;;;;;;;13.70;12.30;;;20.80;97.70;;;;;;6206817;23;20008;-85
2021/08/21 11:38:02;;;;;;;14.93;12.93;;;20.80;97.20;;;;;;6231865;23;20016;-87
2021/08/21 11:40:40;;;;;;;17.92;13.10;;;20.90;97.30;;;;;;6216037;23;20017;-86
2021/08/21 11:43:22;;;;;;;13.45;11.30;;;21.00;97.70;;;;;;6209739;23;20063;-86
2021/08/21 11:45:49;;;;;;;14.43;12.93;;;21.10;97.80;;;;;;6242679;23;20032;-85
2021/08/21 11:48:18;;;;;;;9.57;8.10;;;21.10;97.20;;;;;;6205533;23;20079;-87
2021/08/21 11:50:46;;;;;;;8.70;7.50;;;21.20;96.00;;;;;;6206323;23;20059;-87
2021/08/21 11:53:17;;;;;;;6.50;5.40;;;21.30;95.40;;;;;;6180389;23;20032;-86
2021/08/21 11:55:44;;;;;;;6.55;5.78;;;21.30;94.20;;;;;;6231912;23;20013;-86
2021/08/21 11:58:10;;;;;;;8.68;6.32;;;21.40;94.10;;;;;;6232465;23;20020;-86
2021/08/21 12:00:42;;;;;;;10.23;8.98;;;21.40;94.30;;;;;;6181405;23;20070;-86
2021/08/21 12:03:11;;;;;;;12.23;10.87;;;21.40;94.80;;;;;;6205520;23;20480;-86
2021/08/21 12:05:38;;;;;;;9.30;8.48;;;21.30;94.70;;;;;;6156342;23;20012;-86
2021/08/21 12:08:25;;;;;;;9.15;7.13;;;21.30;95.10;;;;;;6206726;23;20019;-86
2021/08/21 12:10:59;;;;;;;8.60;7.53;;;21.40;95.00;;;;;;6232012;23;20009;-86
2021/08/21 12:13:33;;;;;;;7.57;6.80;;;21.50;94.60;;;;;;6234715;23;20009;-87
2021/08/21 12:16:06;;;;;;;9.70;7.50;;;21.50;95.00;;;;;;6206130;23;20017;-86
2021/08/21 12:18:34;;;;;;;8.10;6.57;;;21.60;94.90;;;;;;6233152;23;20016;-87
2021/08/21 12:21:00;;;;;;;8.38;6.70;;;21.80;94.30;;;;;;6182861;23;20027;-86
2021/08/21 12:23:27;;;;;;;9.77;8.77;;;21.90;94.10;;;;;;6211362;23;20526;-87
2021/08/21 12:25:59;;;;;;;8.80;7.90;;;21.90;93.50;;;;;;6183499;23;20009;-86
2021/08/21 12:28:41;;;;;;;10.02;8.45;;;21.90;93.00;;;;;;6210262;23;20012;-87
2021/08/21 12:31:12;;;;;;;8.77;6.97;;;22.00;92.80;;;;;;6234041;23;20027;-86
2021/08/21 12:33:47;;;;;;;9.32;8.00;;;22.00;92.60;;;;;;6208316;23;20013;-86
2021/08/21 12:36:14;;;;;;;9.50;6.95;;;22.00;92.30;;;;;;6234547;23;20437;-87
2021/08/21 12:38:58;;;;;;;8.25;6.93;;;22.00;92.20;;;;;;6207485;23;20035;-87
2021/08/21 12:41:24;;;;;;;8.88;7.30;;;22.00;92.20;;;;;;6161267;23;20017;-86